METAR Data
IDs: Format: Raw Decoded Include TAF

Data at: 2059 UTC 18 Apr 2021

KVQQ 182050Z 30005KT 7SM -RA BKN017 21/19 A2988
KVQQ 181850Z 23006KT 10SM BKN014 21/18 A2990
KVQQ 181750Z 23006KT 10SM BKN015 21/18 A2989
KVQQ 181650Z 23006KT 10SM BKN013 20/19 A2991
KVQQ 181550Z 21008KT 7SM BKN008 19/19 A2993
KVQQ 181450Z VRB04KT 3SM -RA BKN004 BKN030 19/19 A2996
KVQQ 181350Z VRB04KT 3SM -RA BKN004 BKN031 18/18 A2994
KVQQ 181250Z 00000KT 2 1/2SM RA BKV004 OVC036 18/18 A2995
KVQQ 181212Z VRB04KT 3SM -RA BKN004 BKN049 18/18 A2994
KVQQ 181150Z VRB03KT 8SM BKN065 OVC110 18/18 A2989
KVQQ 181134Z 00000KT 8SM BKN065 OVC110 18/18 A2989
KVQQ 181050Z VRB04KT 6SM -RA BKN004 OVC016 18/18 A2993
KVQQ 181035Z AUTO 19003KT 2 1/2SM RA SCT004 BKN011 OVC018 A2991 RMK AO2
KVQQ 181015Z AUTO 00000KT 10SM OVC012 A2991 RMK AO2
KVQQ 180955Z AUTO 00000KT 4SM -RA BKN012 BKN035 OVC070 A2989 RMK AO2
KVQQ 180935Z AUTO 00000KT 7SM -DZ BKN014 BKN032 OVC075 A2989 RMK AO2
KVQQ 180915Z AUTO 00000KT 10SM BKN014 OVC070 A2988 RMK AO2
KVQQ 180855Z AUTO 00000KT 10SM OVC014 A2988 RMK AO2
KVQQ 180835Z AUTO 00000KT 10SM BKN015 OVC085 A2987 RMK AO2
KVQQ 180815Z AUTO 00000KT 9SM FEW075 BKN085 BKN120 A2988 RMK AO2
KVQQ 180755Z AUTO 00000KT 9SM FEW020 SCT048 BKN110 A2985 RMK AO2
KVQQ 180735Z AUTO VRB03KT 10SM FEW032 SCT049 BKN075 A2987 RMK AO2
KVQQ 180715Z AUTO 00000KT 3SM RA FEW018 BKN032 OVC070 A2990 RMK AO2
KVQQ 180655Z AUTO 25004KT 4SM RA BKN018 BKN027 OVC090 A2992 RMK AO2
KVQQ 180635Z AUTO 00000KT 10SM FEW048 FEW075 OVC090 A2992 RMK AO2
KVQQ 180615Z AUTO 00000KT 7SM BKN085 BKN110 A2990 RMK AO2
KVQQ 180555Z AUTO 00000KT 2SM BR BKN085 BKN110 A2989 RMK AO2
KVQQ 180535Z AUTO 00000KT 8SM BKN080 BKN100 A2989 RMK AO2
KVQQ 180515Z AUTO 00000KT 7SM SCT085 BKN110 A2989 RMK AO2
KVQQ 180455Z AUTO 00000KT 10SM BKN090 OVC110 A2989 RMK AO2
KVQQ 180435Z AUTO 19004KT 10SM FEW055 SCT075 OVC090 A2991 RMK AO2
KVQQ 180415Z AUTO 17003KT 10SM FEW060 BKN075 OVC090 A2990 RMK AO2
KVQQ 180355Z AUTO 15004KT 9SM FEW075 OVC090 A2990 RMK AO2
KVQQ 180335Z AUTO 19004KT 10SM SCT070 OVC090 A2990 RMK AO2
KVQQ 180315Z AUTO 16004KT 5SM -RA FEW055 BKN075 OVC090 A2989 RMK AO2
KVQQ 180050Z 00000KT 5SM -RA BKN020 20/18 A2986
KVQQ 172350Z 36008KT 3SM -RA BKN020 22/18 A2984
KVQQ 172250Z VRB04KT 10SM SCT034 22/18 A2984
KVQQ 172150Z VRB04KT 10SM BKN022 22/18 A2982
KVQQ 172050Z VRB04KT 10SM BKN022 22/18 A2982
KVQQ 171950Z VRB04KT 7SM BKN019 22/18 A2985
KVQQ 171850Z VRB04KT 7SM BKN017 22/17 A2987
KVQQ 171750Z VRB04KT 7SM OVC013 19/16 A2987
KVQQ 171650Z VRB04KT 7SM BKN010 OVC014 19/16 A2991
KVQQ 171450Z VRB04KT 7SM BKN009 OVC014 18/17 A2991
KVQQ 171350Z VRB04KT 7SM BKN009 OVC012 18/16 A2990
KVQQ 171250Z VRB04KT 6SM BR OVC012 18/17 A2988
KVQQ 171150Z VRB04KT 5SM BR BKN003 OVC014 17/17 A2986
KVQQ 171050Z 00000KT 5SM BR OVC004 17/17 A2986
KVQQ 171035Z AUTO 00000KT 6SM HZ OVC004 A2985 RMK AO2
KVQQ 171015Z AUTO 00000KT 7SM SCT004 OVC015 A2983 RMK AO2
KVQQ 170955Z AUTO 00000KT 7SM FEW005 OVC014 A2984 RMK AO2
KVQQ 170935Z AUTO 00000KT 7SM SCT005 OVC013 A2985 RMK AO2 LTG DSNT S-W
KVQQ 170915Z AUTO 00000KT 6SM HZ BKN004 OVC008 A2984 RMK AO2 LTG DSNT SW